createdAt,value
2022-09-15T00:01:04.462Z,100774.16
2022-09-15T00:03:31.372Z,100779.59
2022-09-15T00:05:58.229Z,100783.16
2022-09-15T00:08:25.552Z,100783.16
2022-09-15T00:10:55.337Z,100776.13
2022-09-15T00:13:23.129Z,100783.16
2022-09-15T00:15:50.288Z,100796.56
2022-09-15T00:18:17.661Z,100794.72
2022-09-15T00:20:45.941Z,100789.53
2022-09-15T00:23:15.065Z,100795.72
2022-09-15T00:25:49.843Z,100795.72
2022-09-15T00:28:18.573Z,100800.16
2022-09-15T00:30:48.809Z,100798.56
2022-09-15T00:33:16.822Z,100810.03
2022-09-15T00:35:45.697Z,100809.19
2022-09-15T00:38:13.489Z,100806.72
2022-09-15T00:40:52.593Z,100808.44
2022-09-15T00:43:41.551Z,100805.00
2022-09-15T00:46:08.543Z,100812.78
2022-09-15T00:48:38.201Z,100814.69
2022-09-15T00:51:07.018Z,100813.75
2022-09-15T00:53:34.325Z,100810.25
2022-09-15T00:56:03.366Z,100805.00
2022-09-15T00:58:47.361Z,100811.19
2022-09-15T01:01:31.237Z,100805.00
2022-09-15T01:03:59.423Z,100811.31
2022-09-15T01:06:39.537Z,100802.34
2022-09-15T01:09:08.288Z,100806.84
2022-09-15T01:11:35.527Z,100805.00
2022-09-15T01:14:02.431Z,100800.69
2022-09-15T01:19:50.207Z,100795.44
2022-09-15T01:22:16.960Z,100800.69
2022-09-15T01:25:31.862Z,100795.44
2022-09-15T01:28:35.972Z,100800.88
2022-09-15T01:31:14.152Z,100800.13
2022-09-15T01:34:08.335Z,100799.28
2022-09-15T01:36:47.595Z,100800.13
2022-09-15T01:39:20.514Z,100802.88
2022-09-15T01:42:01.116Z,100802.78
2022-09-15T01:44:37.520Z,100806.25
2022-09-15T01:47:08.268Z,100806.25
2022-09-15T01:49:41.886Z,100810.84
2022-09-15T01:52:08.960Z,100807.31
2022-09-15T01:54:41.868Z,100819.78
2022-09-15T01:57:08.682Z,100825.19
2022-09-15T01:59:35.628Z,100823.50
2022-09-15T02:02:08.104Z,100818.38
2022-09-15T02:04:38.473Z,100824.50
2022-09-15T02:07:14.250Z,100826.22
2022-09-15T02:09:49.546Z,100825.38
2022-09-15T02:12:17.790Z,100812.19
2022-09-15T02:15:03.697Z,100819.19
2022-09-15T02:17:35.682Z,100814.94
2022-09-15T02:20:25.659Z,100823.88
2022-09-15T02:22:57.497Z,100818.44
2022-09-15T02:25:38.670Z,100812.41
2022-09-15T02:28:08.798Z,100816.09
2022-09-15T02:30:41.436Z,100822.16
2022-09-15T02:33:12.367Z,100822.16
2022-09-15T02:35:41.030Z,100810.69
2022-09-15T02:38:09.973Z,100815.16
2022-09-15T02:40:41.533Z,100820.47
2022-09-15T02:43:12.671Z,100821.59
2022-09-15T02:45:39.846Z,100817.16
2022-09-15T02:48:08.409Z,100822.47
2022-09-15T02:50:35.893Z,100813.66
2022-09-15T02:53:03.348Z,100811.00
2022-09-15T02:55:30.237Z,100819.91
2022-09-15T02:57:58.786Z,100814.69
2022-09-15T03:00:28.560Z,100818.41
2022-09-15T03:02:56.382Z,100823.59
2022-09-15T03:05:29.619Z,100829.88
2022-09-15T03:07:57.218Z,100839.53
2022-09-15T03:10:24.979Z,100831.69
2022-09-15T03:12:54.336Z,100829.97
2022-09-15T03:15:24.015Z,100825.50
2022-09-15T03:17:51.331Z,100826.56
2022-09-15T03:20:21.766Z,100826.56
2022-09-15T03:22:49.842Z,100823.16
2022-09-15T03:25:17.974Z,100823.06
2022-09-15T03:27:44.827Z,100832.81
2022-09-15T03:30:12.524Z,100838.13
2022-09-15T03:32:39.439Z,100822.31
2022-09-15T03:35:07.203Z,100831.13
2022-09-15T03:37:34.155Z,100832.00
2022-09-15T03:40:01.245Z,100823.16
2022-09-15T03:42:28.142Z,100826.75
2022-09-15T03:44:55.080Z,100832.25
2022-09-15T03:47:21.924Z,100827.81
2022-09-15T03:49:48.755Z,100829.59
2022-09-15T03:52:15.535Z,100827.06
2022-09-15T03:54:42.360Z,100830.56
2022-09-15T03:57:09.176Z,100830.56
2022-09-15T03:59:36.043Z,100831.50
2022-09-15T04:02:02.999Z,100837.78
2022-09-15T04:04:29.979Z,100832.47
2022-09-15T04:06:56.764Z,100830.75
2022-09-15T04:09:24.926Z,100821.94
2022-09-15T04:11:51.762Z,100831.63
2022-09-15T04:14:18.554Z,100837.78
2022-09-15T04:16:45.363Z,100847.56
2022-09-15T04:19:12.213Z,100844.97
2022-09-15T04:21:39.043Z,100850.28
2022-09-15T04:24:06.210Z,100846.78
2022-09-15T04:26:36.267Z,100836.25
2022-09-15T04:29:05.150Z,100843.38
2022-09-15T04:31:33.431Z,100839.84
2022-09-15T04:34:00.592Z,100849.66
2022-09-15T04:36:29.055Z,100855.91
2022-09-15T04:38:56.853Z,100855.91
2022-09-15T04:41:24.739Z,100856.00
2022-09-15T04:43:52.246Z,100857.81
2022-09-15T04:46:19.887Z,100853.44
2022-09-15T04:48:48.303Z,100854.28
2022-09-15T04:51:19.006Z,100857.06
2022-09-15T04:53:46.729Z,100856.19
2022-09-15T04:56:16.407Z,100859.78
2022-09-15T04:59:04.088Z,100861.69
2022-09-15T05:01:34.268Z,100861.69
2022-09-15T05:04:03.868Z,100862.00
2022-09-15T05:06:30.752Z,100865.28
2022-09-15T05:08:58.297Z,100865.41
2022-09-15T05:11:25.940Z,100858.28
2022-09-15T05:13:53.484Z,100857.44
2022-09-15T05:16:23.550Z,100863.50
2022-09-15T05:18:52.199Z,100860.72
2022-09-15T05:21:21.596Z,100864.44
2022-09-15T05:23:49.416Z,100861.78
2022-09-15T05:26:19.152Z,100863.78
2022-09-15T05:28:46.598Z,100858.28
2022-09-15T05:31:19.726Z,100870.41
2022-09-15T05:33:48.437Z,100866.03
2022-09-15T05:36:17.537Z,100869.56
2022-09-15T05:38:44.821Z,100866.81
2022-09-15T05:41:17.227Z,100882.75
2022-09-15T05:43:45.533Z,100873.81
2022-09-15T05:46:13.102Z,100870.41
2022-09-15T05:48:40.098Z,100871.94
2022-09-15T05:51:07.307Z,100877.25
2022-09-15T05:53:35.760Z,100873.44
2022-09-15T05:56:05.660Z,100878.75
2022-09-15T05:58:33.616Z,100881.28
2022-09-15T06:01:07.936Z,100875.91
2022-09-15T06:03:35.718Z,100884.91
2022-09-15T06:06:04.224Z,100883.13
2022-09-15T06:08:36.196Z,100881.28
2022-09-15T06:11:13.493Z,100881.41
2022-09-15T06:13:40.579Z,100874.28
2022-09-15T06:16:19.794Z,100877.81
2022-09-15T06:18:48.438Z,100875.16
2022-09-15T06:21:21.724Z,100874.00
2022-09-15T06:23:54.053Z,100874.47
2022-09-15T06:26:21.758Z,100881.59
2022-09-15T06:28:52.880Z,100878.94
2022-09-15T06:31:20.200Z,100878.19
2022-09-15T06:33:51.556Z,100881.69
2022-09-15T06:36:20.120Z,100880.84
2022-09-15T06:38:48.572Z,100882.75
2022-09-15T06:41:16.403Z,100885.41
2022-09-15T06:43:44.580Z,100887.28
2022-09-15T06:46:15.024Z,100891.66
2022-09-15T06:48:45.256Z,100891.66
2022-09-15T06:51:17.324Z,100896.09
2022-09-15T06:53:44.920Z,100900.53
2022-09-15T06:56:17.101Z,100901.34
2022-09-15T06:58:45.604Z,100903.00
2022-09-15T07:01:14.972Z,100902.94
2022-09-15T07:03:44.376Z,100903.00
2022-09-15T07:06:12.509Z,100908.44
2022-09-15T07:08:40.881Z,100903.00
2022-09-15T07:11:09.521Z,100901.22
2022-09-15T07:13:36.820Z,100905.59
2022-09-15T07:16:06.051Z,100902.09
2022-09-15T07:18:33.501Z,100898.50
2022-09-15T07:21:02.496Z,100904.53
2022-09-15T07:23:30.129Z,100900.00
2022-09-15T07:26:07.488Z,100907.03
2022-09-15T07:28:34.880Z,100905.19
2022-09-15T07:31:01.958Z,100905.97
2022-09-15T07:33:29.163Z,100919.25
2022-09-15T07:35:56.214Z,100912.97
2022-09-15T07:38:23.347Z,100918.94
2022-09-15T07:40:50.264Z,100920.66
2022-09-15T07:43:17.221Z,100918.84
2022-09-15T07:45:44.092Z,100919.63
2022-09-15T07:48:11.349Z,100926.63
2022-09-15T07:50:38.672Z,100931.84
2022-09-15T07:53:05.686Z,100936.19
2022-09-15T07:55:33.164Z,100930.06
2022-09-15T07:58:01.444Z,100930.88
2022-09-15T08:00:28.548Z,100921.78
2022-09-15T08:02:56.298Z,100916.28
2022-09-15T08:05:28.525Z,100924.16
2022-09-15T08:07:56.559Z,100919.59
2022-09-15T08:10:25.447Z,100919.69
2022-09-15T08:12:53.237Z,100931.81
2022-09-15T08:15:21.057Z,100931.94
2022-09-15T08:17:48.006Z,100932.47
2022-09-15T08:20:15.005Z,100926.97
2022-09-15T08:22:42.366Z,100921.56
2022-09-15T08:25:10.036Z,100927.66
2022-09-15T08:27:37.053Z,100934.47
2022-09-15T08:30:05.283Z,100936.19
2022-09-15T08:32:32.339Z,100935.97
2022-09-15T08:34:59.625Z,100949.03
2022-09-15T08:37:26.497Z,100941.84
2022-09-15T08:39:53.688Z,100936.44
2022-09-15T08:42:24.434Z,100938.19
2022-09-15T08:45:02.486Z,100942.44
2022-09-15T08:47:38.824Z,100931.97
2022-09-15T08:50:24.010Z,100944.34
2022-09-15T08:52:52.307Z,100938.19
2022-09-15T08:55:54.587Z,100951.47
2022-09-15T08:58:25.758Z,100947.06
2022-09-15T09:01:01.267Z,100935.00
2022-09-15T09:03:36.867Z,100965.00
2022-09-15T09:06:34.783Z,100948.97
2022-09-15T09:09:39.222Z,100958.75
2022-09-15T09:12:42.552Z,100964.81
2022-09-15T09:15:15.378Z,100961.13
2022-09-15T09:18:00.927Z,100982.66
2022-09-15T09:20:49.144Z,100983.59
2022-09-15T09:23:22.050Z,100969.19
2022-09-15T09:25:50.413Z,100978.09
2022-09-15T09:28:39.514Z,100974.50
2022-09-15T09:31:15.620Z,100982.47
2022-09-15T09:34:04.479Z,100967.31
2022-09-15T09:36:31.489Z,100979.81
2022-09-15T09:38:58.949Z,100979.81
2022-09-15T09:41:35.954Z,100983.25
2022-09-15T09:44:13.155Z,100960.94
2022-09-15T09:46:40.199Z,100975.19
2022-09-15T09:49:12.901Z,100981.34
2022-09-15T09:52:00.383Z,100983.81
2022-09-15T09:54:31.937Z,100974.78
2022-09-15T09:57:14.310Z,100972.03
2022-09-15T09:59:49.275Z,100970.13
2022-09-15T10:02:17.834Z,100959.50
2022-09-15T10:05:12.574Z,100969.28
2022-09-15T10:07:44.320Z,100971.00
2022-09-15T10:10:24.041Z,100977.91
2022-09-15T10:12:56.586Z,100978.66
2022-09-15T10:15:34.746Z,100965.38
2022-09-15T10:18:02.116Z,100971.66
2022-09-15T10:20:38.701Z,100965.28
2022-09-15T10:23:29.633Z,100966.13
2022-09-15T10:26:18.021Z,100967.16
2022-09-15T10:28:45.695Z,100961.66
2022-09-15T10:31:26.126Z,100955.47
2022-09-15T10:33:53.116Z,100955.47
2022-09-15T10:36:31.224Z,100947.31
2022-09-15T10:39:19.216Z,100961.56
2022-09-15T10:41:59.405Z,100957.00
2022-09-15T10:44:53.212Z,100959.75
2022-09-15T10:47:32.173Z,100964.97
2022-09-15T10:50:12.846Z,100928.50
2022-09-15T10:52:45.702Z,100964.00
2022-09-15T10:55:31.872Z,100955.28
2022-09-15T10:58:33.983Z,100973.16
2022-09-15T11:01:27.295Z,100973.03
2022-09-15T11:03:54.239Z,100960.59
2022-09-15T11:06:26.903Z,100949.13
2022-09-15T11:09:15.391Z,100954.22
2022-09-15T11:12:19.429Z,100960.81
2022-09-15T11:14:50.736Z,100958.25
2022-09-15T11:17:23.535Z,100969.09
2022-09-15T11:19:56.491Z,100966.63
2022-09-15T11:22:32.074Z,100970.88
2022-09-15T11:25:33.037Z,100972.69
2022-09-15T11:28:15.908Z,100971.75
2022-09-15T11:30:54.071Z,100966.63
2022-09-15T11:33:29.850Z,100962.03
2022-09-15T11:36:09.076Z,100961.03
2022-09-15T11:38:48.307Z,100973.34
2022-09-15T11:41:39.316Z,100966.97
2022-09-15T11:44:31.625Z,100949.22
2022-09-15T11:47:10.304Z,100967.84
2022-09-15T11:49:49.334Z,100967.63
2022-09-15T11:52:34.200Z,100971.25
2022-09-15T11:55:16.438Z,100964.97
2022-09-15T11:57:52.512Z,100968.50
2022-09-15T12:00:21.222Z,100966.78
2022-09-15T12:02:58.287Z,100974.88
2022-09-15T12:05:35.772Z,100980.94
2022-09-15T12:08:16.242Z,100987.19
2022-09-15T12:10:47.739Z,100988.91
2022-09-15T12:13:19.552Z,100988.16
2022-09-15T12:15:48.096Z,100992.50
2022-09-15T12:18:38.130Z,100986.44
2022-09-15T12:21:06.207Z,100982.84
2022-09-15T12:23:34.919Z,100989.22
2022-09-15T12:26:21.261Z,100992.69
2022-09-15T12:28:51.269Z,100995.47
2022-09-15T12:31:24.013Z,100986.56
2022-09-15T12:34:05.934Z,100990.03
2022-09-15T12:36:39.786Z,100992.69
2022-09-15T12:39:21.448Z,100991.00
2022-09-15T12:41:50.607Z,100985.69
2022-09-15T12:44:37.489Z,100996.53
2022-09-15T12:47:16.814Z,100989.28
2022-09-15T12:49:45.969Z,101006.09
2022-09-15T12:52:14.062Z,100987.31
2022-09-15T12:54:45.678Z,101002.41
2022-09-15T12:57:35.501Z,100998.00
2022-09-15T13:00:35.196Z,100992.69
2022-09-15T13:03:04.201Z,101007.81
2022-09-15T13:06:14.601Z,100993.56
2022-09-15T13:08:55.905Z,101000.41
2022-09-15T13:11:37.482Z,101011.78
2022-09-15T13:14:04.817Z,100999.53
2022-09-15T13:16:34.263Z,100999.53
2022-09-15T13:19:22.446Z,100991.56
2022-09-15T13:21:57.242Z,101000.47
2022-09-15T13:24:38.524Z,101003.13
2022-09-15T13:27:07.847Z,100999.34
2022-09-15T13:29:50.139Z,100998.56
2022-09-15T13:32:30.137Z,100998.50
2022-09-15T13:35:04.289Z,101003.81
2022-09-15T13:40:39.681Z,100998.00
2022-09-15T13:43:30.618Z,100998.97
2022-09-15T13:46:04.612Z,100996.31
2022-09-15T13:49:03.729Z,100993.00
2022-09-15T13:51:33.428Z,101003.94
2022-09-15T13:54:06.331Z,101011.16
2022-09-15T13:56:41.714Z,100996.03
2022-09-15T13:59:17.136Z,100995.22
2022-09-15T14:01:45.247Z,100998.13
2022-09-15T14:04:14.811Z,101006.13
2022-09-15T14:06:47.514Z,100997.75
2022-09-15T14:09:46.955Z,100989.03
2022-09-15T14:12:17.224Z,100993.69
2022-09-15T14:14:51.244Z,101014.34
2022-09-15T14:17:22.008Z,101011.03
2022-09-15T14:19:51.921Z,101021.94
2022-09-15T14:22:21.639Z,101019.47
2022-09-15T14:24:50.854Z,101017.78
2022-09-15T14:27:33.973Z,101018.81
2022-09-15T14:30:09.744Z,101014.34
2022-09-15T14:32:44.611Z,101020.44
2022-09-15T14:35:19.812Z,101018.63
2022-09-15T14:37:53.553Z,101021.94
2022-09-15T14:40:25.294Z,101013.31
2022-09-15T14:42:52.702Z,101021.19
2022-09-15T14:48:18.103Z,101018.72
2022-09-15T14:50:48.553Z,101025.53
2022-09-15T14:53:22.463Z,101027.25
2022-09-15T14:56:07.731Z,101037.16
2022-09-15T14:58:44.825Z,101041.59
2022-09-15T15:01:16.068Z,101037.78
2022-09-15T15:03:45.844Z,101035.34
2022-09-15T15:06:39.709Z,101039.69
2022-09-15T15:09:29.421Z,101035.06
2022-09-15T15:12:05.989Z,101034.09
2022-09-15T15:14:34.127Z,101021.75
2022-09-15T15:17:06.322Z,101023.44
2022-09-15T15:19:40.743Z,101026.09
2022-09-15T15:22:13.942Z,101028.56
2022-09-15T15:24:46.606Z,101029.63
2022-09-15T15:27:34.741Z,101023.44
2022-09-15T15:30:24.851Z,101036.00
2022-09-15T15:32:52.262Z,101036.97
2022-09-15T15:35:20.878Z,101042.28
2022-09-15T15:37:48.309Z,101040.38
2022-09-15T15:40:23.481Z,101037.91
2022-09-15T15:43:06.081Z,101043.97
2022-09-15T15:45:47.588Z,101045.69
2022-09-15T15:48:14.707Z,101051.00
2022-09-15T15:50:41.964Z,101053.53
2022-09-15T15:53:09.040Z,101049.09
2022-09-15T15:55:39.423Z,101058.63
2022-09-15T15:58:07.149Z,101055.09
2022-09-15T16:00:51.376Z,101052.34
2022-09-15T16:03:19.712Z,101056.88
2022-09-15T16:05:50.761Z,101055.09
2022-09-15T16:08:17.532Z,101049.84
2022-09-15T16:10:48.297Z,101051.00
2022-09-15T16:13:18.260Z,101061.63
2022-09-15T16:15:45.411Z,101058.09
2022-09-15T16:18:13.417Z,101064.47
2022-09-15T16:20:41.367Z,101064.28
2022-09-15T16:23:14.270Z,101066.94
2022-09-15T16:25:48.486Z,101066.25
2022-09-15T16:28:15.503Z,101068.72
2022-09-15T16:30:42.553Z,101069.66
2022-09-15T16:33:14.015Z,101074.22
2022-09-15T16:35:51.432Z,101080.50
2022-09-15T16:38:20.406Z,101072.63
2022-09-15T16:40:51.471Z,101073.66
2022-09-15T16:43:22.060Z,101073.66
2022-09-15T16:45:50.780Z,101075.47
2022-09-15T16:48:17.930Z,101076.25
2022-09-15T16:53:33.055Z,101087.53
2022-09-15T16:56:00.006Z,101086.47
2022-09-15T16:58:26.981Z,101084.78
2022-09-15T17:00:54.073Z,101094.44
2022-09-15T17:03:24.228Z,101099.88
2022-09-15T17:05:53.528Z,101089.44
2022-09-15T17:08:23.409Z,101097.50
2022-09-15T17:10:53.753Z,101091.31
2022-09-15T17:13:26.338Z,101090.47
2022-09-15T17:15:56.679Z,101086.88
2022-09-15T17:18:23.981Z,101083.16
2022-09-15T17:20:52.220Z,101076.03
2022-09-15T17:23:20.967Z,101093.31
2022-09-15T17:25:54.408Z,101091.41
2022-09-15T17:28:24.011Z,101085.34
2022-09-15T17:30:53.155Z,101081.84
2022-09-15T17:33:21.080Z,101081.34
2022-09-15T17:35:49.303Z,101087.34
2022-09-15T17:38:17.034Z,101082.69
2022-09-15T17:40:44.047Z,101097.84
2022-09-15T17:43:16.078Z,101103.94
2022-09-15T17:45:43.496Z,101102.06
2022-09-15T17:48:10.620Z,101110.97
2022-09-15T17:50:38.775Z,101111.81
2022-09-15T17:53:23.275Z,101110.13
2022-09-15T17:55:51.292Z,101113.81
2022-09-15T17:58:19.030Z,101110.03
2022-09-15T18:00:47.404Z,101119.75
2022-09-15T18:03:29.440Z,101120.66
2022-09-15T18:05:58.778Z,101127.94
2022-09-15T18:08:26.925Z,101133.25
2022-09-15T18:10:54.297Z,101135.84
2022-09-15T18:13:27.671Z,101142.69
2022-09-15T18:15:55.836Z,101141.16
2022-09-15T18:18:25.427Z,101148.00
2022-09-15T18:20:55.900Z,101151.44
2022-09-15T18:23:25.888Z,101150.50
2022-09-15T18:25:53.209Z,101160.19
2022-09-15T18:28:20.615Z,101153.91
2022-09-15T18:30:49.798Z,101156.56
2022-09-15T18:33:24.611Z,101157.34
2022-09-15T18:35:57.378Z,101158.16
2022-09-15T18:38:25.490Z,101156.38
2022-09-15T18:40:57.066Z,101154.47
2022-09-15T18:43:26.882Z,101165.09
2022-09-15T18:45:59.264Z,101160.66
2022-09-15T18:48:26.651Z,101164.06
2022-09-15T18:50:53.854Z,101163.97
2022-09-15T18:53:20.830Z,101165.72
2022-09-15T18:55:50.295Z,101170.91
2022-09-15T18:58:19.586Z,101158.38
2022-09-15T19:00:49.396Z,101170.63
2022-09-15T19:03:16.451Z,101169.69
2022-09-15T19:05:43.498Z,101160.84
2022-09-15T19:08:11.822Z,101178.59
2022-09-15T19:10:42.574Z,101180.31
2022-09-15T19:13:12.538Z,101187.31
2022-09-15T19:15:40.793Z,101182.00
2022-09-15T19:18:07.900Z,101183.72
2022-09-15T19:20:34.867Z,101186.31
2022-09-15T19:23:02.030Z,101185.44
2022-09-15T19:25:29.053Z,101180.13
2022-09-15T19:27:56.046Z,101188.00
2022-09-15T19:30:24.349Z,101186.31
2022-09-15T19:32:53.199Z,101190.19
2022-09-15T19:35:20.732Z,101190.09
2022-09-15T19:37:47.793Z,101192.56
2022-09-15T19:40:16.152Z,101199.69
2022-09-15T19:42:44.532Z,101198.06
2022-09-15T19:45:13.414Z,101201.59
2022-09-15T19:47:41.108Z,101203.28
2022-09-15T19:50:09.893Z,101199.78
2022-09-15T19:52:37.280Z,101206.91
2022-09-15T19:55:07.944Z,101203.50
2022-09-15T19:57:37.927Z,101219.63
2022-09-15T20:00:06.381Z,101211.72
2022-09-15T20:02:33.914Z,101206.50
2022-09-15T20:07:42.522Z,101210.91
2022-09-15T20:10:11.642Z,101221.53
2022-09-15T20:12:39.590Z,101222.47
2022-09-15T20:15:07.791Z,101219.06
2022-09-15T20:17:35.469Z,101229.75
2022-09-15T20:20:05.293Z,101231.75
2022-09-15T20:22:33.014Z,101229.00
2022-09-15T20:25:00.223Z,101229.88
2022-09-15T20:27:28.268Z,101229.09
2022-09-15T20:29:57.460Z,101235.34
2022-09-15T20:35:11.950Z,101235.66
2022-09-15T20:37:39.778Z,101237.34
2022-09-15T20:40:09.203Z,101228.59
2022-09-15T20:42:37.462Z,101233.22
2022-09-15T20:45:05.391Z,101238.69
2022-09-15T20:47:33.078Z,101246.78
2022-09-15T20:50:00.227Z,101249.53
2022-09-15T20:52:35.861Z,101257.22
2022-09-15T20:55:07.382Z,101252.78
2022-09-15T20:57:34.587Z,101253.88
2022-09-15T21:00:01.789Z,101255.69
2022-09-15T21:02:29.011Z,101263.94
2022-09-15T21:04:55.970Z,101257.84
2022-09-15T21:07:22.989Z,101259.47
2022-09-15T21:09:50.161Z,101266.88
2022-09-15T21:12:17.300Z,101265.25
2022-09-15T21:14:44.297Z,101269.53
2022-09-15T21:17:11.576Z,101264.47
2022-09-15T21:19:40.653Z,101269.81
2022-09-15T21:22:07.888Z,101265.50
2022-09-15T21:24:35.002Z,101268.25
2022-09-15T21:27:20.734Z,101267.50
2022-09-15T21:29:48.507Z,101278.13
2022-09-15T21:32:16.033Z,101271.25
2022-09-15T21:34:44.218Z,101266.97
2022-09-15T21:37:11.871Z,101271.53
2022-09-15T21:39:38.785Z,101266.38
2022-09-15T21:42:06.124Z,101264.69
2022-09-15T21:44:33.194Z,101271.88
2022-09-15T21:47:00.532Z,101284.47
2022-09-15T21:49:27.695Z,101272.25
2022-09-15T21:51:54.516Z,101281.03
2022-09-15T21:54:21.630Z,101278.38
2022-09-15T21:56:48.682Z,101291.50
2022-09-15T21:59:16.663Z,101292.47
2022-09-15T22:01:43.619Z,101287.22
2022-09-15T22:04:11.559Z,101287.31
2022-09-15T22:06:40.963Z,101289.22
2022-09-15T22:10:24.626Z,101293.56
2022-09-15T22:12:54.605Z,101291.22
2022-09-15T22:15:21.576Z,101296.75
2022-09-15T22:17:48.638Z,101294.09
2022-09-15T22:20:15.803Z,101292.47
2022-09-15T22:22:44.592Z,101294.25
2022-09-15T22:25:11.755Z,101297.78
2022-09-15T22:27:38.888Z,101301.38
2022-09-15T22:30:06.333Z,101295.19
2022-09-15T22:32:33.209Z,101305.81
2022-09-15T22:35:00.174Z,101299.63
2022-09-15T22:37:30.733Z,101299.47
2022-09-15T22:39:59.261Z,101303.91
2022-09-15T22:42:26.985Z,101306.56
2022-09-15T22:44:53.885Z,101302.13
2022-09-15T22:47:20.807Z,101306.56
2022-09-15T22:49:47.688Z,101303.09
2022-09-15T22:52:14.607Z,101309.22
2022-09-15T22:54:41.470Z,101304.94
2022-09-15T22:57:08.412Z,101300.66
2022-09-15T22:59:35.282Z,101300.50
2022-09-15T23:02:02.212Z,101298.72
2022-09-15T23:04:29.193Z,101300.59
2022-09-15T23:06:56.014Z,101304.09
2022-09-15T23:09:22.933Z,101302.38
2022-09-15T23:11:49.772Z,101303.25
2022-09-15T23:14:17.937Z,101308.72
2022-09-15T23:16:45.417Z,101311.38
2022-09-15T23:19:13.778Z,101311.56
2022-09-15T23:21:40.833Z,101322.06
2022-09-15T23:24:08.960Z,101326.44
2022-09-15T23:26:35.918Z,101320.38
2022-09-15T23:29:02.805Z,101323.03
2022-09-15T23:31:29.628Z,101321.31
2022-09-15T23:33:56.478Z,101331.00
2022-09-15T23:36:23.328Z,101324.88
2022-09-15T23:38:50.213Z,101330.28
2022-09-15T23:41:18.054Z,101327.75
2022-09-15T23:43:45.525Z,101324.22
2022-09-15T23:46:13.047Z,101326.00
2022-09-15T23:48:39.891Z,101326.00
2022-09-15T23:51:06.835Z,101318.22
2022-09-15T23:53:34.464Z,101320.00
2022-09-15T23:56:01.649Z,101340.41
2022-09-15T23:58:28.561Z,101327.97
